Station Historical Data
Daily Summary for February 24, 2017 Units:  English    Metric   Both
« Previous Day
Next Day »
Daily Weekly Monthly Yearly Custom
  High: Low: Average:
Temperature: 72.3 °F 42.2 °F 53.5 °F
Dew Point: 59.2 °F 38.0 °F 47.3 °F
Humidity: 95% 60% 81%
Wind Speed: 10.0mph 0.0mph 3.3mph
Wind Gust: 21.0mph - -
Wind- - ESE
Pressure: 29.87 in 29.50 in -
Precipitation: 0.00 in    
Historical Graphs
 
 
Tabular Data for February 24, 2017
Time Temperature Dew Point Pressure Wind Wind Speed Wind Gust Humidity Rainfall Rate (Hourly)
00:04 42.6 °F 38.1 °F 29.85 in NNE 4.0 mph 5.0 mph 84% 0.00 in
00:09 42.5 °F 38.0 °F 29.84 in ENE 5.0 mph 6.0 mph 84% 0.00 in
00:14 42.5 °F 38.0 °F 29.84 in ENE 1.0 mph 6.0 mph 84% 0.00 in
00:19 42.5 °F 38.3 °F 29.84 in NE 4.0 mph 5.0 mph 85% 0.00 in
00:24 42.5 °F 38.3 °F 29.84 in NE 3.0 mph 5.0 mph 85% 0.00 in
00:29 42.6 °F 38.4 °F 29.85 in NE 3.0 mph 5.0 mph 85% 0.00 in
00:34 42.7 °F 38.2 °F 29.85 in NE 3.0 mph 5.0 mph 84% 0.00 in
00:39 42.7 °F 38.2 °F 29.85 in NE 3.0 mph 4.0 mph 84% 0.00 in
00:44 42.8 °F 38.3 °F 29.85 in NNE 1.0 mph 4.0 mph 84% 0.00 in
00:49 42.9 °F 38.4 °F 29.85 in NE 2.0 mph 5.0 mph 84% 0.00 in
00:54 42.9 °F 38.4 °F 29.85 in NE 3.0 mph 4.0 mph 84% 0.00 in
00:59 42.9 °F 38.4 °F 29.85 in NE 5.0 mph 6.0 mph 84% 0.00 in
01:04 42.9 °F 38.4 °F 29.85 in NE 3.0 mph 6.0 mph 84% 0.00 in
01:09 43.0 °F 38.8 °F 29.86 in NNE 3.0 mph 5.0 mph 85% 0.00 in
01:14 43.1 °F 38.9 °F 29.86 in NNE 3.0 mph 5.0 mph 85% 0.00 in
01:19 43.2 °F 38.7 °F 29.86 in NNE 3.0 mph 5.0 mph 84% 0.00 in
01:24 43.1 °F 38.6 °F 29.87 in NNE 3.0 mph 7.0 mph 84% 0.00 in
01:29 43.1 °F 38.9 °F 29.87 in NNE 3.0 mph 7.0 mph 85% 0.00 in
01:34 43.1 °F 38.9 °F 29.86 in NNE 3.0 mph 7.0 mph 85% 0.00 in
01:39 43.1 °F 38.9 °F 29.87 in NE 3.0 mph 6.0 mph 85% 0.00 in
01:44 43.2 °F 39.0 °F 29.86 in NE 5.0 mph 9.0 mph 85% 0.00 in
01:49 43.4 °F 38.9 °F 29.86 in NE 7.0 mph 14.0 mph 84% 0.00 in
01:54 43.5 °F 39.0 °F 29.86 in NNE 3.0 mph 10.0 mph 84% 0.00 in
01:59 43.6 °F 38.8 °F 29.86 in NE 4.0 mph 12.0 mph 83% 0.00 in
02:04 43.6 °F 38.8 °F 29.86 in NNE 4.0 mph 8.0 mph 83% 0.00 in
02:09 43.5 °F 39.0 °F 29.86 in NE 5.0 mph 11.0 mph 84% 0.00 in
02:14 43.4 °F 38.9 °F 29.86 in NE 5.0 mph 11.0 mph 84% 0.00 in
02:19 43.4 °F 38.9 °F 29.86 in NE 4.0 mph 10.0 mph 84% 0.00 in
02:24 43.3 °F 38.8 °F 29.85 in NNE 5.0 mph 10.0 mph 84% 0.00 in
02:29 43.2 °F 38.7 °F 29.85 in NNE 4.0 mph 10.0 mph 84% 0.00 in
02:34 43.2 °F 38.7 °F 29.84 in NE 3.0 mph 10.0 mph 84% 0.00 in
02:39 43.1 °F 38.6 °F 29.85 in NNE 4.0 mph 10.0 mph 84% 0.00 in
02:44 43.0 °F 38.5 °F 29.84 in NE 5.0 mph 10.0 mph 84% 0.00 in
02:49 43.0 °F 38.5 °F 29.84 in NE 5.0 mph 9.0 mph 84% 0.00 in
02:54 42.9 °F 38.7 °F 29.84 in NE 6.0 mph 11.0 mph 85% 0.00 in
02:59 42.9 °F 38.4 °F 29.83 in ENE 5.0 mph 12.0 mph 84% 0.00 in
03:04 42.9 °F 38.7 °F 29.83 in ENE 4.0 mph 10.0 mph 85% 0.00 in
03:09 42.9 °F 38.7 °F 29.83 in NE 2.0 mph 10.0 mph 85% 0.00 in
03:14 42.9 °F 38.7 °F 29.84 in NE 4.0 mph 8.0 mph 85% 0.00 in
03:19 42.9 °F 38.7 °F 29.83 in NE 4.0 mph 9.0 mph 85% 0.00 in
03:24 43.0 °F 38.8 °F 29.83 in NE 5.0 mph 9.0 mph 85% 0.00 in
03:29 43.0 °F 38.8 °F 29.83 in NE 6.0 mph 9.0 mph 85% 0.00 in
03:34 43.0 °F 39.1 °F 29.83 in NE 5.0 mph 9.0 mph 86% 0.00 in
03:44 43.0 °F 39.1 °F 29.82 in NE 4.0 mph 9.0 mph 86% 0.01 in
03:49 42.9 °F 39.3 °F 29.82 in NE 2.0 mph 8.0 mph 87% 0.01 in
03:54 42.8 °F 39.2 °F 29.82 in NNE 3.0 mph 8.0 mph 87% 0.01 in
03:59 42.8 °F 39.2 °F 29.81 in ENE 9.0 mph 12.0 mph 87% 0.01 in
04:04 42.7 °F 39.1 °F 29.82 in NE 1.0 mph 9.0 mph 87% 0.01 in
04:09 42.7 °F 39.1 °F 29.82 in NE 6.0 mph 11.0 mph 87% 0.01 in
04:14 42.6 °F 39.3 °F 29.82 in NE 4.0 mph 9.0 mph 88% 0.01 in
04:19 42.5 °F 39.2 °F 29.82 in ENE 3.0 mph 8.0 mph 88% 0.01 in
04:24 42.6 °F 39.3 °F 29.82 in NE 4.0 mph 8.0 mph 88% 0.01 in
04:29 42.6 °F 39.3 °F 29.82 in NE 4.0 mph 8.0 mph 88% 0.01 in
04:34 42.6 °F 39.3 °F 29.82 in NNE 4.0 mph 8.0 mph 88% 0.01 in
04:39 42.6 °F 39.3 °F 29.82 in NNE 3.0 mph 6.0 mph 88% 0.00 in
04:44 42.6 °F 39.6 °F 29.82 in NNE 3.0 mph 5.0 mph 89% 0.00 in
04:49 42.5 °F 39.5 °F 29.82 in NNE 3.0 mph 6.0 mph 89% 0.00 in
04:54 42.5 °F 39.5 °F 29.81 in NNE 4.0 mph 7.0 mph 89% 0.00 in
04:59 42.4 °F 39.4 °F 29.80 in NNE 8.0 mph 11.0 mph 89% 0.00 in
05:04 42.4 °F 39.4 °F 29.80 in ENE 8.0 mph 11.0 mph 89% 0.01 in
05:09 42.3 °F 39.3 °F 29.80 in ESE 3.0 mph 9.0 mph 89% 0.01 in
05:14 42.3 °F 39.3 °F 29.81 in ENE 2.0 mph 10.0 mph 89% 0.01 in
05:19 42.3 °F 39.6 °F 29.81 in NE 5.0 mph 8.0 mph 90% 0.01 in
05:24 42.3 °F 39.6 °F 29.80 in ENE 4.0 mph 10.0 mph 90% 0.02 in
05:29 42.2 °F 39.5 °F 29.80 in NE 5.0 mph 10.0 mph 90% 0.02 in
05:34 42.3 °F 39.6 °F 29.79 in NE 5.0 mph 8.0 mph 90% 0.03 in
05:39 42.4 °F 39.7 °F 29.79 in NE 4.0 mph 8.0 mph 90% 0.04 in
05:44 42.4 °F 40.0 °F 29.80 in NE 4.0 mph 8.0 mph 91% 0.05 in
05:49 42.4 °F 40.0 °F 29.80 in NNE 3.0 mph 6.0 mph 91% 0.06 in
05:54 42.4 °F 40.0 °F 29.80 in NNE 3.0 mph 7.0 mph 91% 0.07 in
05:59 42.4 °F 40.0 °F 29.80 in NE 3.0 mph 7.0 mph 91% 0.08 in
06:04 42.5 °F 40.1 °F 29.80 in NE 3.0 mph 7.0 mph 91% 0.08 in
06:09 42.5 °F 40.1 °F 29.80 in ENE 3.0 mph 6.0 mph 91% 0.09 in
06:14 42.6 °F 40.2 °F 29.79 in ENE 3.0 mph 10.0 mph 91% 0.11 in
06:19 42.7 °F 40.5 °F 29.79 in ENE 1.0 mph 7.0 mph 92% 0.12 in
06:24 42.9 °F 40.7 °F 29.78 in ENE 1.0 mph 7.0 mph 92% 0.11 in
06:29 43.0 °F 40.8 °F 29.78 in NNE 4.0 mph 10.0 mph 92% 0.11 in
06:34 43.0 °F 40.8 °F 29.78 in ENE 4.0 mph 10.0 mph 92% 0.10 in
06:39 43.1 °F 40.9 °F 29.78 in ENE 3.0 mph 8.0 mph 92% 0.09 in
06:44 43.3 °F 41.1 °F 29.77 in East 5.0 mph 9.0 mph 92% 0.09 in
06:49 43.4 °F 41.2 °F 29.77 in ENE 7.0 mph 8.0 mph 92% 0.08 in
06:54 43.6 °F 41.4 °F 29.77 in NE 2.0 mph 9.0 mph 92% 0.07 in
06:59 43.7 °F 41.5 °F 29.77 in ENE 3.0 mph 8.0 mph 92% 0.06 in
07:04 43.8 °F 41.6 °F 29.77 in ENE 3.0 mph 8.0 mph 92% 0.05 in
07:09 43.9 °F 41.7 °F 29.77 in ENE 3.0 mph 7.0 mph 92% 0.05 in
07:14 44.0 °F 41.8 °F 29.77 in ENE 3.0 mph 7.0 mph 92% 0.03 in
07:19 44.1 °F 41.9 °F 29.77 in NE 1.0 mph 7.0 mph 92% 0.04 in
07:24 44.3 °F 42.1 °F 29.77 in NE 3.0 mph 7.0 mph 92% 0.04 in
07:29 44.4 °F 42.5 °F 29.77 in ENE 1.0 mph 5.0 mph 93% 0.05 in
07:34 44.5 °F 42.6 °F 29.76 in East 2.0 mph 3.0 mph 93% 0.05 in
07:39 44.5 °F 42.6 °F 29.76 in ENE 2.0 mph 5.0 mph 93% 0.05 in
07:44 44.7 °F 42.8 °F 29.76 in ENE 2.0 mph 6.0 mph 93% 0.04 in
07:49 44.8 °F 42.9 °F 29.76 in ENE 3.0 mph 6.0 mph 93% 0.04 in
07:54 45.0 °F 43.1 °F 29.76 in ENE 3.0 mph 6.0 mph 93% 0.04 in
07:59 45.1 °F 43.2 °F 29.76 in ENE 3.0 mph 6.0 mph 93% 0.04 in
08:04 45.2 °F 43.3 °F 29.76 in ENE 1.0 mph 5.0 mph 93% 0.04 in
08:09 45.3 °F 43.4 °F 29.76 in NE 4.0 mph 5.0 mph 93% 0.03 in
08:14 45.4 °F 43.5 °F 29.77 in NE 2.0 mph 5.0 mph 93% 0.03 in
08:19 45.5 °F 43.6 °F 29.76 in NE 2.0 mph 4.0 mph 93% 0.01 in
08:24 45.6 °F 43.7 °F 29.77 in SE 2.0 mph 3.0 mph 93% 0.01 in
08:29 45.7 °F 43.8 °F 29.77 in East 1.0 mph 6.0 mph 93% 0.00 in
08:34 45.7 °F 43.8 °F 29.76 in ENE 2.0 mph 3.0 mph 93% 0.01 in
08:39 45.8 °F 43.9 °F 29.76 in Calm   3.0 mph 93% 0.01 in
08:44 45.8 °F 43.9 °F 29.77 in ENE 1.0 mph 5.0 mph 93% 0.02 in
08:49 45.9 °F 44.0 °F 29.77 in East 1.0 mph 5.0 mph 93% 0.02 in
08:54 46.0 °F 44.1 °F 29.77 in ENE 1.0 mph 2.0 mph 93% 0.03 in
08:59 46.2 °F 44.3 °F 29.77 in Calm     93% 0.04 in
09:04 46.3 °F 44.4 °F 29.77 in Calm     93% 0.05 in
09:09 46.3 °F 44.4 °F 29.76 in Calm     93% 0.06 in
09:14 46.4 °F 44.5 °F 29.75 in ENE 1.0 mph 5.0 mph 93% 0.06 in
09:19 46.5 °F 44.9 °F 29.75 in East 2.0 mph 5.0 mph 94% 0.07 in
09:24 46.6 °F 45.0 °F 29.75 in ESE 2.0 mph 4.0 mph 94% 0.07 in
09:29 46.9 °F 45.3 °F 29.74 in East 2.0 mph 5.0 mph 94% 0.07 in
09:34 47.1 °F 45.5 °F 29.74 in ESE 2.0 mph 4.0 mph 94% 0.06 in
09:39 47.5 °F 45.9 °F 29.74 in East 1.0 mph 5.0 mph 94% 0.06 in
09:44 48.0 °F 46.4 °F 29.73 in Calm   2.0 mph 94% 0.05 in
09:49 48.6 °F 47.0 °F 29.73 in Calm   2.0 mph 94% 0.05 in
09:54 49.3 °F 47.9 °F 29.72 in Calm     95% 0.04 in
09:59 50.2 °F 48.8 °F 29.72 in Calm     95% 0.03 in
10:04 51.1 °F 49.7 °F 29.72 in Calm     95% 0.02 in
10:09 51.8 °F 50.4 °F 29.72 in Calm   5.0 mph 95% 0.01 in
10:14 52.6 °F 51.2 °F 29.71 in Calm     95% 0.01 in
10:19 53.4 °F 51.7 °F 29.71 in Calm     94% 0.00 in
10:24 54.6 °F 52.9 °F 29.71 in Calm   2.0 mph 94% 0.00 in
10:29 55.3 °F 53.6 °F 29.71 in SE 1.0 mph 3.0 mph 94% 0.00 in
10:34 56.3 °F 54.6 °F 29.71 in Calm   3.0 mph 94% 0.00 in
10:39 58.7 °F 56.7 °F 29.70 in SSE 1.0 mph 3.0 mph 93% 0.00 in
10:44 60.0 °F 57.1 °F 29.70 in South 1.0 mph 5.0 mph 90% 0.00 in
10:49 61.4 °F 57.5 °F 29.70 in South 3.0 mph 6.0 mph 87% 0.00 in
10:54 63.2 °F 57.9 °F 29.70 in SSW 4.0 mph 10.0 mph 83% 0.00 in
10:59 63.4 °F 57.1 °F 29.69 in SSW 4.0 mph 10.0 mph 80% 0.00 in
11:04 63.9 °F 56.9 °F 29.69 in South 6.0 mph 11.0 mph 78% 0.00 in
11:09 64.9 °F 57.9 °F 29.69 in South 6.0 mph 14.0 mph 78% 0.00 in
11:14 65.5 °F 57.7 °F 29.69 in South 6.0 mph 14.0 mph 76% 0.00 in
11:19 65.7 °F 57.6 °F 29.69 in South 6.0 mph 12.0 mph 75% 0.00 in
11:24 66.4 °F 57.9 °F 29.69 in South 6.0 mph 13.0 mph 74% 0.00 in
11:29 67.0 °F 58.1 °F 29.69 in South 5.0 mph 13.0 mph 73% 0.00 in
11:34 67.9 °F 58.5 °F 29.69 in SSW 6.0 mph 9.0 mph 72% 0.00 in
11:39 68.2 °F 58.4 °F 29.68 in South 4.0 mph 7.0 mph 71% 0.00 in
11:44 68.3 °F 58.1 °F 29.69 in SSE 3.0 mph 8.0 mph 70% 0.00 in
11:49 68.5 °F 58.3 °F 29.68 in South 2.0 mph 9.0 mph 70% 0.00 in
11:54 68.6 °F 58.0 °F 29.68 in SSW 7.0 mph 9.0 mph 69% 0.00 in
11:59 69.2 °F 58.6 °F 29.68 in SSW 5.0 mph 9.0 mph 69% 0.00 in
12:04 69.5 °F 58.1 °F 29.68 in SSW 5.0 mph 11.0 mph 67% 0.00 in
12:09 70.0 °F 58.1 °F 29.68 in SW 6.0 mph 11.0 mph 66% 0.00 in
12:14 70.0 °F 58.1 °F 29.68 in SW 7.0 mph 12.0 mph 66% 0.00 in
12:19 70.3 °F 57.5 °F 29.67 in SW 7.0 mph 15.0 mph 64% 0.00 in
12:24 71.1 °F 59.2 °F 29.67 in SSW 6.0 mph 15.0 mph 66% 0.00 in
12:29 70.8 °F 58.0 °F 29.67 in SSW 6.0 mph 14.0 mph 64% 0.00 in
12:34 71.8 °F 59.0 °F 29.66 in South 6.0 mph 12.0 mph 64% 0.00 in
12:39 71.8 °F 58.1 °F 29.66 in SSW 6.0 mph 12.0 mph 62% 0.00 in
12:44 71.5 °F 58.2 °F 29.66 in SSE 6.0 mph 16.0 mph 63% 0.00 in
12:49 71.6 °F 58.3 °F 29.66 in SW 6.0 mph 13.0 mph 63% 0.00 in
12:54 71.3 °F 57.6 °F 29.66 in SW 10.0 mph 14.0 mph 62% 0.00 in
12:59 71.6 °F 57.9 °F 29.65 in SW 8.0 mph 19.0 mph 62% 0.00 in
13:04 72.3 °F 58.1 °F 29.65 in SW 7.0 mph 19.0 mph 61% 0.00 in
13:09 71.8 °F 57.2 °F 29.65 in SW 7.0 mph 14.0 mph 60% 0.00 in
13:14 71.6 °F 57.4 °F 29.65 in SW 7.0 mph 15.0 mph 61% 0.00 in
13:19 70.9 °F 56.8 °F 29.65 in SW 7.0 mph 15.0 mph 61% 0.00 in
13:24 70.4 °F 56.8 °F 29.65 in WSW 7.0 mph 14.0 mph 62% 0.00 in
13:29 69.7 °F 56.1 °F 29.65 in SW 8.0 mph 14.0 mph 62% 0.00 in
13:34 69.7 °F 56.5 °F 29.65 in WSW 7.0 mph 14.0 mph 63% 0.00 in
13:39 70.3 °F 56.7 °F 29.64 in SW 4.0 mph 12.0 mph 62% 0.00 in
13:44 71.8 °F 58.1 °F 29.64 in WSW 6.0 mph 9.0 mph 62% 0.00 in
13:49 71.0 °F 56.4 °F 29.64 in WNW 7.0 mph 14.0 mph 60% 0.00 in
13:54 69.9 °F 56.3 °F 29.64 in South 7.0 mph 14.0 mph 62% 0.00 in
13:59 69.7 °F 56.5 °F 29.63 in SW 5.0 mph 10.0 mph 63% 0.00 in
14:04 69.2 °F 56.1 °F 29.63 in SW 5.0 mph 10.0 mph 63% 0.00 in
14:09 68.5 °F 55.8 °F 29.63 in SW 5.0 mph 12.0 mph 64% 0.00 in
14:14 67.9 °F 55.7 °F 29.63 in SW 5.0 mph 12.0 mph 65% 0.00 in
14:19 67.6 °F 55.0 °F 29.63 in SW 5.0 mph 10.0 mph 64% 0.00 in
14:24 68.1 °F 55.5 °F 29.63 in South 3.0 mph 9.0 mph 64% 0.00 in
14:29 67.7 °F 55.5 °F 29.63 in SW 3.0 mph 10.0 mph 65% 0.00 in
14:34 67.6 °F 55.4 °F 29.62 in SW 4.0 mph 10.0 mph 65% 0.00 in
14:39 67.6 °F 55.4 °F 29.63 in SSW 3.0 mph 7.0 mph 65% 0.00 in
14:44 67.0 °F 54.8 °F 29.63 in SSW 4.0 mph 10.0 mph 65% 0.00 in
14:49 66.9 °F 55.2 °F 29.63 in SW 4.0 mph 10.0 mph 66% 0.00 in
14:54 66.8 °F 54.7 °F 29.63 in WSW 4.0 mph 7.0 mph 65% 0.00 in
14:59 66.4 °F 54.7 °F 29.63 in SSW 3.0 mph 7.0 mph 66% 0.00 in
15:04 66.6 °F 55.3 °F 29.63 in West 3.0 mph 6.0 mph 67% 0.00 in
15:09 67.1 °F 54.9 °F 29.63 in WSW 3.0 mph 6.0 mph 65% 0.00 in
15:14 67.6 °F 55.0 °F 29.63 in WSW 3.0 mph 7.0 mph 64% 0.00 in
15:19 68.1 °F 55.0 °F 29.63 in West 2.0 mph 5.0 mph 63% 0.00 in
15:24 68.1 °F 55.0 °F 29.62 in SW 1.0 mph 7.0 mph 63% 0.00 in
15:29 68.0 °F 55.4 °F 29.63 in West 4.0 mph 6.0 mph 64% 0.00 in
15:34 67.9 °F 55.3 °F 29.62 in WNW 2.0 mph 5.0 mph 64% 0.00 in
15:39 68.5 °F 55.4 °F 29.62 in NW 2.0 mph 4.0 mph 63% 0.00 in
15:44 68.3 °F 54.8 °F 29.62 in WNW 3.0 mph 7.0 mph 62% 0.00 in
15:49 68.5 °F 55.0 °F 29.62 in West 3.0 mph 7.0 mph 62% 0.00 in
15:54 68.7 °F 54.7 °F 29.62 in West 4.0 mph 7.0 mph 61% 0.00 in
15:59 68.8 °F 54.8 °F 29.62 in WSW 3.0 mph 6.0 mph 61% 0.00 in
16:04 68.7 °F 54.3 °F 29.61 in SW 1.0 mph 6.0 mph 60% 0.00 in
16:09 68.4 °F 54.4 °F 29.61 in WSW 1.0 mph 3.0 mph 61% 0.00 in
16:14 68.1 °F 55.9 °F 29.61 in WNW 2.0 mph 4.0 mph 65% 0.00 in
16:19 66.4 °F 55.1 °F 29.61 in North 3.0 mph 9.0 mph 67% 0.00 in
16:24 64.8 °F 54.0 °F 29.61 in NE 6.0 mph 6.0 mph 68% 0.00 in
16:29 64.1 °F 53.7 °F 29.61 in NNE 3.0 mph 7.0 mph 69% 0.00 in
16:34 63.8 °F 53.8 °F 29.61 in NNE 2.0 mph 4.0 mph 70% 0.00 in
16:39 63.8 °F 53.8 °F 29.61 in NE 3.0 mph 7.0 mph 70% 0.00 in
16:44 63.2 °F 53.3 °F 29.61 in ENE 5.0 mph 8.0 mph 70% 0.00 in
16:49 62.4 °F 52.9 °F 29.61 in NE 4.0 mph 8.0 mph 71% 0.00 in
16:54 61.9 °F 52.8 °F 29.61 in NE 4.0 mph 9.0 mph 72% 0.00 in
16:59 61.3 °F 52.6 °F 29.61 in NE 4.0 mph 9.0 mph 73% 0.00 in
17:04 60.9 °F 52.2 °F 29.61 in NNE 4.0 mph 7.0 mph 73% 0.00 in
17:09 60.4 °F 51.7 °F 29.61 in NE 7.0 mph 9.0 mph 73% 0.00 in
17:14 59.6 °F 51.3 °F 29.61 in NE 6.0 mph 9.0 mph 74% 0.00 in
17:19 58.9 °F 51.0 °F 29.61 in NE 5.0 mph 11.0 mph 75% 0.00 in
17:24 58.3 °F 50.8 °F 29.60 in NE 5.0 mph 11.0 mph 76% 0.00 in
17:29 58.1 °F 50.6 °F 29.60 in NE 4.0 mph 9.0 mph 76% 0.00 in
17:34 57.9 °F 50.7 °F 29.60 in NE 5.0 mph 6.0 mph 77% 0.00 in
17:39 57.7 °F 50.5 °F 29.61 in North 3.0 mph 7.0 mph 77% 0.00 in
17:44 57.5 °F 50.3 °F 29.61 in NE 2.0 mph 7.0 mph 77% 0.00 in
17:49 57.2 °F 50.1 °F 29.61 in NE 4.0 mph 7.0 mph 77% 0.00 in
17:54 56.9 °F 50.1 °F 29.61 in NE 4.0 mph 8.0 mph 78% 0.00 in
17:59 56.7 °F 49.9 °F 29.62 in NE 4.0 mph 9.0 mph 78% 0.00 in
18:04 56.3 °F 49.5 °F 29.62 in NE 3.0 mph 9.0 mph 78% 0.00 in
18:09 56.1 °F 49.7 °F 29.62 in NNE 2.0 mph 4.0 mph 79% 0.00 in
18:14 55.8 °F 49.4 °F 29.62 in NNE 2.0 mph 3.0 mph 79% 0.00 in
18:19 55.7 °F 49.3 °F 29.62 in NNE 2.0 mph 3.0 mph 79% 0.00 in
18:24 55.3 °F 49.2 °F 29.63 in NNE 2.0 mph 3.0 mph 80% 0.00 in
18:29 55.2 °F 49.1 °F 29.62 in NNW 4.0 mph 4.0 mph 80% 0.00 in
18:34 54.8 °F 48.7 °F 29.62 in NNE 2.0 mph 4.0 mph 80% 0.00 in
18:39 54.5 °F 48.8 °F 29.62 in North 2.0 mph 3.0 mph 81% 0.00 in
18:44 54.2 °F 48.5 °F 29.63 in NNW 4.0 mph 4.0 mph 81% 0.00 in
18:49 53.8 °F 48.1 °F 29.63 in NNW 1.0 mph 5.0 mph 81% 0.00 in
18:54 53.3 °F 47.6 °F 29.63 in North 2.0 mph 5.0 mph 81% 0.00 in
18:59 52.9 °F 47.6 °F 29.63 in North 3.0 mph 6.0 mph 82% 0.00 in
19:04 52.7 °F 47.4 °F 29.64 in North 3.0 mph 6.0 mph 82% 0.00 in
19:09 52.6 °F 47.3 °F 29.64 in NNE 2.0 mph 5.0 mph 82% 0.00 in
19:14 52.5 °F 47.5 °F 29.64 in NE 2.0 mph 8.0 mph 83% 0.00 in
19:19 52.4 °F 47.1 °F 29.63 in North 1.0 mph 6.0 mph 82% 0.00 in
19:24 52.0 °F 46.7 °F 29.63 in NE 3.0 mph 6.0 mph 82% 0.00 in
19:29 51.6 °F 46.6 °F 29.63 in NE 3.0 mph 6.0 mph 83% 0.00 in
19:34 51.2 °F 46.2 °F 29.62 in NNE 4.0 mph 7.0 mph 83% 0.00 in
19:39 50.7 °F 45.7 °F 29.62 in NE 2.0 mph 7.0 mph 83% 0.00 in
19:44 50.4 °F 45.7 °F 29.62 in NNE 3.0 mph 10.0 mph 84% 0.00 in
19:49 50.2 °F 45.6 °F 29.62 in ENE 2.0 mph 9.0 mph 84% 0.00 in
19:54 50.1 °F 45.5 °F 29.62 in NE 3.0 mph 9.0 mph 84% 0.00 in
19:59 49.9 °F 45.3 °F 29.61 in ENE 3.0 mph 6.0 mph 84% 0.00 in
20:04 49.7 °F 45.4 °F 29.61 in ENE 3.0 mph 6.0 mph 85% 0.00 in
20:09 49.6 °F 45.3 °F 29.61 in ENE 3.0 mph 6.0 mph 85% 0.00 in
20:14 49.6 °F 45.3 °F 29.61 in ENE 2.0 mph 6.0 mph 85% 0.00 in
20:19 49.6 °F 45.3 °F 29.60 in ENE 2.0 mph 3.0 mph 85% 0.00 in
20:24 49.9 °F 45.6 °F 29.60 in NE 1.0 mph 4.0 mph 85% 0.00 in
20:29 49.8 °F 45.5 °F 29.60 in North 1.0 mph 3.0 mph 85% 0.00 in
20:34 49.8 °F 45.8 °F 29.60 in Calm   2.0 mph 86% 0.00 in
20:39 50.0 °F 45.7 °F 29.60 in Calm     85% 0.00 in
20:44 50.0 °F 45.7 °F 29.59 in East 1.0 mph 5.0 mph 85% 0.00 in
20:49 49.9 °F 45.6 °F 29.58 in ENE 2.0 mph 5.0 mph 85% 0.00 in
20:54 50.0 °F 45.7 °F 29.58 in ENE 3.0 mph 5.0 mph 85% 0.00 in
20:59 49.9 °F 45.6 °F 29.58 in ENE 2.0 mph 4.0 mph 85% 0.00 in
21:04 50.0 °F 46.0 °F 29.57 in ENE 1.0 mph 4.0 mph 86% 0.00 in
21:09 50.1 °F 45.8 °F 29.57 in Calm   3.0 mph 85% 0.00 in
21:14 50.1 °F 45.8 °F 29.57 in NE 1.0 mph 4.0 mph 85% 0.00 in
21:19 50.1 °F 45.8 °F 29.56 in East 1.0 mph 4.0 mph 85% 0.00 in
21:24 50.1 °F 45.8 °F 29.56 in ENE 2.0 mph 4.0 mph 85% 0.00 in
21:29 50.2 °F 46.2 °F 29.56 in Calm   3.0 mph 86% 0.00 in
21:34 50.2 °F 45.9 °F 29.56 in Calm     85% 0.00 in
21:39 50.3 °F 46.3 °F 29.56 in Calm     86% 0.00 in
21:44 50.3 °F 46.0 °F 29.55 in Calm     85% 0.00 in
21:49 50.6 °F 46.6 °F 29.55 in Calm     86% 0.00 in
21:54 50.7 °F 46.4 °F 29.55 in Calm     85% 0.00 in
21:59 50.8 °F 46.8 °F 29.54 in Calm     86% 0.00 in
22:04 50.8 °F 46.5 °F 29.54 in Calm     85% 0.00 in
22:09 51.1 °F 47.1 °F 29.54 in Calm     86% 0.00 in
22:14 50.9 °F 46.6 °F 29.54 in Calm     85% 0.00 in
22:19 51.0 °F 47.0 °F 29.53 in Calm     86% 0.00 in
22:24 51.1 °F 46.7 °F 29.53 in Calm     85% 0.00 in
22:29 50.7 °F 46.4 °F 29.53 in Calm     85% 0.00 in
22:34 50.6 °F 46.6 °F 29.53 in Calm     86% 0.00 in
22:39 50.5 °F 46.5 °F 29.53 in Calm     86% 0.00 in
22:44 50.8 °F 47.1 °F 29.53 in ESE 1.0 mph 3.0 mph 87% 0.00 in
22:49 51.8 °F 48.1 °F 29.53 in SSE 3.0 mph 4.0 mph 87% 0.00 in
22:54 53.7 °F 49.0 °F 29.53 in South 4.0 mph 6.0 mph 84% 0.00 in
22:59 56.6 °F 50.2 °F 29.52 in South 3.0 mph 9.0 mph 79% 0.00 in
23:04 60.3 °F 51.2 °F 29.52 in South 5.0 mph 12.0 mph 72% 0.00 in
23:09 62.5 °F 52.2 °F 29.52 in South 4.0 mph 10.0 mph 69% 0.00 in
23:14 63.7 °F 52.1 °F 29.51 in SSE 5.0 mph 13.0 mph 66% 0.00 in
23:19 64.3 °F 52.3 °F 29.51 in SSE 6.0 mph 11.0 mph 65% 0.00 in
23:24 64.8 °F 52.3 °F 29.51 in South 7.0 mph 11.0 mph 64% 0.00 in
23:29 65.1 °F 52.2 °F 29.51 in South 7.0 mph 20.0 mph 63% 0.00 in
23:34 65.3 °F 52.4 °F 29.50 in South 7.0 mph 20.0 mph 63% 0.00 in
23:39 65.5 °F 52.1 °F 29.50 in South 7.0 mph 14.0 mph 62% 0.00 in
23:44 65.4 °F 52.0 °F 29.50 in South 7.0 mph 21.0 mph 62% 0.00 in
23:49 65.7 °F 52.3 °F 29.51 in South 7.0 mph 21.0 mph 62% 0.00 in
23:54 65.6 °F 52.2 °F 29.51 in South 7.0 mph 14.0 mph 62% 0.00 in
23:59 65.5 °F 52.1 °F 29.51 in South 7.0 mph 12.0 mph 62% 0.00 in
Buffalo, New York, USA
Compliments of Weather Underground - 2.5 mb